createdAt,value
2018-06-12T00:00:19.230Z,1006.97
2018-06-12T00:01:19.203Z,1006.94
2018-06-12T00:02:19.188Z,1006.99
2018-06-12T00:03:19.153Z,1006.91
2018-06-12T00:04:19.138Z,1006.97
2018-06-12T00:05:19.110Z,1006.96
2018-06-12T00:06:19.089Z,1006.99
2018-06-12T00:07:19.061Z,1006.94
2018-06-12T00:08:19.040Z,1006.91
2018-06-12T00:09:19.011Z,1006.92
2018-06-12T00:10:18.994Z,1006.96
2018-06-12T00:11:18.974Z,1006.93
2018-06-12T00:12:18.938Z,1006.89
2018-06-12T00:13:18.917Z,1006.88
2018-06-12T00:14:18.894Z,1006.86
2018-06-12T00:15:18.873Z,1006.87
2018-06-12T00:16:18.836Z,1006.89
2018-06-12T00:17:18.821Z,1006.88
2018-06-12T00:18:18.793Z,1006.87
2018-06-12T00:19:18.772Z,1006.92
2018-06-12T00:20:18.740Z,1006.85
2018-06-12T00:21:18.721Z,1006.92
2018-06-12T00:22:18.696Z,1006.89
2018-06-12T00:23:18.678Z,1006.91
2018-06-12T00:24:18.649Z,1006.89
2018-06-12T00:25:18.618Z,1006.97
2018-06-12T00:26:18.597Z,1006.83
2018-06-12T00:27:18.575Z,1006.86
2018-06-12T00:28:18.545Z,1006.85
2018-06-12T00:29:18.526Z,1006.88
2018-06-12T00:30:18.498Z,1006.85
2018-06-12T00:31:18.482Z,1006.81
2018-06-12T00:32:18.455Z,1006.79
2018-06-12T00:33:18.428Z,1006.79
2018-06-12T00:34:18.401Z,1006.75
2018-06-12T00:35:18.376Z,1006.84
2018-06-12T00:36:18.357Z,1006.70
2018-06-12T00:37:18.326Z,1006.73
2018-06-12T00:38:18.304Z,1006.69
2018-06-12T00:39:18.282Z,1006.75
2018-06-12T00:40:18.251Z,1006.73
2018-06-12T00:41:18.235Z,1006.75
2018-06-12T00:42:18.206Z,1006.70
2018-06-12T00:43:18.191Z,1006.73
2018-06-12T00:44:18.161Z,1006.67
2018-06-12T00:45:18.136Z,1006.71
2018-06-12T00:46:18.103Z,1006.70
2018-06-12T00:47:18.087Z,1006.68
2018-06-12T00:48:18.055Z,1006.78
2018-06-12T00:49:18.032Z,1006.80
2018-06-12T00:50:18.009Z,1006.78
2018-06-12T00:51:17.986Z,1006.81
2018-06-12T00:52:17.957Z,1006.84
2018-06-12T00:53:17.938Z,1006.86
2018-06-12T00:54:17.907Z,1006.80
2018-06-12T00:55:17.881Z,1006.88
2018-06-12T00:56:17.864Z,1006.81
2018-06-12T00:57:17.843Z,1006.88
2018-06-12T00:58:17.813Z,1006.87
2018-06-12T00:59:17.801Z,1006.91
2018-06-12T01:00:17.770Z,1006.94
2018-06-12T01:01:17.740Z,1006.90
2018-06-12T01:02:17.713Z,1006.92
2018-06-12T01:03:17.683Z,1006.91
2018-06-12T01:04:17.658Z,1006.90
2018-06-12T01:05:17.636Z,1006.88
2018-06-12T01:06:17.613Z,1006.91
2018-06-12T01:07:17.596Z,1006.90
2018-06-12T01:08:17.560Z,1006.84
2018-06-12T01:09:17.539Z,1006.88
2018-06-12T01:10:17.516Z,1006.95
2018-06-12T01:11:17.483Z,1006.96
2018-06-12T01:12:17.470Z,1006.95
2018-06-12T01:13:17.443Z,1006.93
2018-06-12T01:14:17.416Z,1006.94
2018-06-12T01:15:17.394Z,1006.94
2018-06-12T01:16:17.373Z,1006.97
2018-06-12T01:17:17.338Z,1006.98
2018-06-12T01:18:17.312Z,1006.99
2018-06-12T01:19:17.299Z,1007.01
2018-06-12T01:20:17.276Z,1007.01
2018-06-12T01:21:17.243Z,1007.02
2018-06-12T01:22:17.214Z,1007.02
2018-06-12T01:23:17.196Z,1007.01
2018-06-12T01:24:17.173Z,1007.04
2018-06-12T01:25:17.140Z,1007.06
2018-06-12T01:26:17.120Z,1007.05
2018-06-12T01:27:17.096Z,1007.06
2018-06-12T01:28:17.066Z,1007.02
2018-06-12T01:29:17.056Z,1007.04
2018-06-12T01:30:17.022Z,1007.07
2018-06-12T01:31:16.987Z,1007.10
2018-06-12T01:32:16.966Z,1007.08
2018-06-12T01:33:16.950Z,1007.13
2018-06-12T01:34:16.915Z,1007.10
2018-06-12T01:35:16.901Z,1007.18
2018-06-12T01:36:16.864Z,1007.14
2018-06-12T01:37:16.847Z,1007.07
2018-06-12T01:38:16.815Z,1007.12
2018-06-12T01:39:16.793Z,1007.04
2018-06-12T01:40:16.771Z,1007.16
2018-06-12T01:41:16.742Z,1007.21
2018-06-12T01:42:16.720Z,1007.10
2018-06-12T01:43:16.689Z,1007.09
2018-06-12T01:44:16.675Z,1007.07
2018-06-12T01:45:16.645Z,1007.11
2018-06-12T01:46:16.616Z,1007.12
2018-06-12T01:47:16.600Z,1007.15
2018-06-12T01:48:16.573Z,1007.20
2018-06-12T01:49:16.541Z,1007.13
2018-06-12T01:50:16.523Z,1007.11
2018-06-12T01:51:16.488Z,1007.12
2018-06-12T01:52:16.474Z,1007.08
2018-06-12T01:53:16.442Z,1007.08
2018-06-12T01:54:16.417Z,1007.01
2018-06-12T01:55:16.396Z,1007.07
2018-06-12T01:56:16.372Z,1007.13
2018-06-12T01:57:16.348Z,1007.09
2018-06-12T01:58:16.316Z,1007.13
2018-06-12T01:59:16.297Z,1007.14
2018-06-12T02:00:16.265Z,1007.09
2018-06-12T02:01:16.247Z,1007.06
2018-06-12T02:02:16.216Z,1007.05
2018-06-12T02:03:16.203Z,1007.05
2018-06-12T02:04:16.173Z,1007.08
2018-06-12T02:05:16.151Z,1007.09
2018-06-12T02:06:16.119Z,1007.11
2018-06-12T02:07:16.100Z,1007.12
2018-06-12T02:08:16.066Z,1007.10
2018-06-12T02:09:16.051Z,1007.11
2018-06-12T02:13:19.933Z,1007.15
2018-06-12T02:14:19.900Z,1007.14
2018-06-12T02:16:12.809Z,1007.15
2018-06-12T02:17:12.751Z,1007.17
2018-06-12T02:18:12.734Z,1007.16
2018-06-12T02:19:12.701Z,1007.14
2018-06-12T02:20:12.682Z,1007.19
2018-06-12T02:21:12.657Z,1007.18
2018-06-12T02:22:12.630Z,1007.18
2018-06-12T02:23:12.604Z,1007.19
2018-06-12T02:24:12.581Z,1007.26
2018-06-12T02:25:12.556Z,1007.24
2018-06-12T02:26:12.528Z,1007.27
2018-06-12T02:27:12.499Z,1007.26
2018-06-12T02:28:12.483Z,1007.27
2018-06-12T02:29:12.450Z,1007.29
2018-06-12T02:30:12.438Z,1007.29
2018-06-12T02:31:12.408Z,1007.24
2018-06-12T02:32:12.379Z,1007.25
2018-06-12T02:33:12.359Z,1007.21
2018-06-12T02:34:12.334Z,1007.25
2018-06-12T02:35:12.304Z,1007.24
2018-06-12T02:36:12.284Z,1007.24
2018-06-12T02:37:12.248Z,1007.24
2018-06-12T02:38:12.229Z,1007.23
2018-06-12T02:39:12.203Z,1007.20
2018-06-12T02:40:12.180Z,1007.21
2018-06-12T02:41:12.160Z,1007.20
2018-06-12T02:42:12.133Z,1007.20
2018-06-12T02:43:12.112Z,1007.15
2018-06-12T02:44:12.075Z,1007.16
2018-06-12T02:45:12.071Z,1007.18
2018-06-12T02:46:12.025Z,1007.17
2018-06-12T02:47:12.000Z,1007.16
2018-06-12T02:48:11.984Z,1007.12
2018-06-12T02:49:11.951Z,1007.16
2018-06-12T02:50:11.934Z,1007.13
2018-06-12T02:51:11.908Z,1007.12
2018-06-12T02:52:11.875Z,1007.17
2018-06-12T02:53:11.860Z,1007.17
2018-06-12T02:54:11.827Z,1007.22
2018-06-12T02:55:11.810Z,1007.21
2018-06-12T02:56:11.780Z,1007.24
2018-06-12T02:57:11.756Z,1007.25
2018-06-12T02:58:11.739Z,1007.22
2018-06-12T02:59:11.711Z,1007.26
2018-06-12T03:00:11.679Z,1007.29
2018-06-12T03:01:11.657Z,1007.29
2018-06-12T03:02:11.628Z,1007.29
2018-06-12T03:03:11.609Z,1007.28
2018-06-12T03:04:11.576Z,1007.31
2018-06-12T03:05:11.562Z,1007.26
2018-06-12T03:06:11.527Z,1007.24
2018-06-12T03:07:11.511Z,1007.25
2018-06-12T03:08:11.490Z,1007.23
2018-06-12T03:09:11.457Z,1007.19
2018-06-12T03:10:11.430Z,1007.18
2018-06-12T03:11:11.415Z,1007.18
2018-06-12T03:12:11.382Z,1007.18
2018-06-12T03:13:11.364Z,1007.17
2018-06-12T03:14:11.328Z,1007.16
2018-06-12T03:15:11.304Z,1007.18
2018-06-12T03:16:11.283Z,1007.18
2018-06-12T03:17:11.261Z,1007.19
2018-06-12T03:18:11.228Z,1007.23
2018-06-12T03:19:11.209Z,1007.18
2018-06-12T03:20:11.188Z,1007.15
2018-06-12T03:21:11.167Z,1007.16
2018-06-12T03:22:11.132Z,1007.18
2018-06-12T03:23:11.138Z,1007.14
2018-06-12T03:24:11.092Z,1007.14
2018-06-12T03:25:11.058Z,1007.15
2018-06-12T03:26:11.030Z,1007.17
2018-06-12T03:27:11.011Z,1007.19
2018-06-12T03:28:10.990Z,1007.21
2018-06-12T03:29:10.964Z,1007.23
2018-06-12T03:30:11.822Z,1007.25
2018-06-12T03:31:10.913Z,1007.27
2018-06-12T03:32:10.883Z,1007.29
2018-06-12T03:33:10.856Z,1007.26
2018-06-12T03:34:10.840Z,1007.25
2018-06-12T03:35:10.816Z,1007.25
2018-06-12T03:36:10.784Z,1007.28
2018-06-12T03:37:10.763Z,1007.27
2018-06-12T03:38:10.739Z,1007.28
2018-06-12T03:39:10.713Z,1007.28
2018-06-12T03:40:10.688Z,1007.27
2018-06-12T03:41:10.658Z,1007.29
2018-06-12T03:42:10.641Z,1007.34
2018-06-12T03:43:10.616Z,1007.31
2018-06-12T03:44:10.583Z,1007.33
2018-06-12T03:45:10.568Z,1007.33
2018-06-12T03:46:10.538Z,1007.35
2018-06-12T03:47:10.519Z,1007.33
2018-06-12T03:48:10.494Z,1007.35
2018-06-12T03:49:10.464Z,1007.37
2018-06-12T03:50:10.442Z,1007.40
2018-06-12T03:51:10.419Z,1007.38
2018-06-12T03:52:10.387Z,1007.39
2018-06-12T03:53:10.365Z,1007.38
2018-06-12T03:54:10.343Z,1007.40
2018-06-12T03:55:10.318Z,1007.45
2018-06-12T03:56:10.287Z,1007.37
2018-06-12T03:57:10.263Z,1007.39
2018-06-12T03:58:10.233Z,1007.40
2018-06-12T03:59:10.211Z,1007.36
2018-06-12T04:00:10.191Z,1007.35
2018-06-12T04:01:10.167Z,1007.35
2018-06-12T04:02:10.138Z,1007.40
2018-06-12T04:03:10.109Z,1007.39
2018-06-12T04:04:10.098Z,1007.42
2018-06-12T04:05:10.061Z,1007.37
2018-06-12T04:06:10.048Z,1007.40
2018-06-12T04:07:10.016Z,1007.44
2018-06-12T04:08:09.991Z,1007.44
2018-06-12T04:09:09.968Z,1007.43
2018-06-12T04:10:09.942Z,1007.43
2018-06-12T04:11:09.916Z,1007.43
2018-06-12T04:12:09.899Z,1007.42
2018-06-12T04:13:09.866Z,1007.38
2018-06-12T04:14:09.840Z,1007.36
2018-06-12T04:15:09.869Z,1007.36
2018-06-12T04:16:09.786Z,1007.39
2018-06-12T04:17:09.772Z,1007.36
2018-06-12T04:18:09.737Z,1007.34
2018-06-12T04:19:09.719Z,1007.35
2018-06-12T04:20:09.698Z,1007.39
2018-06-12T04:21:09.672Z,1007.38
2018-06-12T04:22:09.638Z,1007.38
2018-06-12T04:23:09.618Z,1007.38
2018-06-12T04:24:09.591Z,1007.41
2018-06-12T04:25:09.590Z,1007.39
2018-06-12T04:26:09.540Z,1007.41
2018-06-12T04:27:09.517Z,1007.42
2018-06-12T04:28:09.493Z,1007.46
2018-06-12T04:29:09.473Z,1007.45
2018-06-12T04:30:09.439Z,1007.43
2018-06-12T04:31:09.419Z,1007.40
2018-06-12T04:32:09.397Z,1007.42
2018-06-12T04:33:09.370Z,1007.41
2018-06-12T04:34:09.348Z,1007.38
2018-06-12T04:35:09.314Z,1007.39
2018-06-12T04:36:09.298Z,1007.33
2018-06-12T04:37:09.272Z,1007.36
2018-06-12T04:38:09.246Z,1007.31
2018-06-12T04:39:09.219Z,1007.34
2018-06-12T04:40:09.198Z,1007.30
2018-06-12T04:41:09.178Z,1007.30
2018-06-12T04:42:09.146Z,1007.34
2018-06-12T04:43:09.125Z,1007.35
2018-06-12T04:44:09.095Z,1007.38
2018-06-12T04:45:09.070Z,1007.37
2018-06-12T04:46:09.046Z,1007.37
2018-06-12T04:47:09.023Z,1007.39
2018-06-12T04:48:08.994Z,1007.40
2018-06-12T04:49:08.978Z,1007.43
2018-06-12T04:50:08.942Z,1007.41
2018-06-12T04:51:08.933Z,1007.44
2018-06-12T04:52:08.894Z,1007.43
2018-06-12T04:53:08.879Z,1007.47
2018-06-12T04:54:08.853Z,1007.50
2018-06-12T04:55:08.824Z,1007.49
2018-06-12T04:56:08.798Z,1007.50
2018-06-12T04:57:08.777Z,1007.49
2018-06-12T04:58:08.752Z,1007.51
2018-06-12T04:59:08.722Z,1007.55
2018-06-12T05:00:08.699Z,1007.50
2018-06-12T05:01:08.675Z,1007.51
2018-06-12T05:02:08.655Z,1007.51
2018-06-12T05:03:08.625Z,1007.45
2018-06-12T05:04:08.615Z,1007.47
2018-06-12T05:05:08.573Z,1007.47
2018-06-12T05:06:08.554Z,1007.49
2018-06-12T05:07:08.547Z,1007.52
2018-06-12T05:08:08.503Z,1007.49
2018-06-12T05:09:08.481Z,1007.52
2018-06-12T05:10:08.458Z,1007.52
2018-06-12T05:11:08.435Z,1007.52
2018-06-12T05:12:08.404Z,1007.53
2018-06-12T05:13:08.386Z,1007.55
2018-06-12T05:14:08.355Z,1007.56
2018-06-12T05:15:08.338Z,1007.60
2018-06-12T05:16:08.313Z,1007.58
2018-06-12T05:17:08.280Z,1007.61
2018-06-12T05:18:08.263Z,1007.59
2018-06-12T05:19:08.237Z,1007.62
2018-06-12T05:20:08.207Z,1007.64
2018-06-12T05:21:08.186Z,1007.65
2018-06-12T05:22:08.158Z,1007.68
2018-06-12T05:23:08.132Z,1007.66
2018-06-12T05:24:08.113Z,1007.68
2018-06-12T05:25:08.092Z,1007.66
2018-06-12T05:26:08.065Z,1007.67
2018-06-12T05:27:08.035Z,1007.63
2018-06-12T05:28:08.021Z,1007.60
2018-06-12T05:29:07.990Z,1007.60
2018-06-12T05:30:07.963Z,1007.58
2018-06-12T05:31:08.008Z,1007.58
2018-06-12T05:32:07.917Z,1007.59
2018-06-12T05:33:07.896Z,1007.58
2018-06-12T05:34:07.862Z,1007.60
2018-06-12T05:35:07.843Z,1007.63
2018-06-12T05:36:07.817Z,1007.68
2018-06-12T05:37:07.787Z,1007.70
2018-06-12T05:38:07.773Z,1007.71
2018-06-12T05:39:07.737Z,1007.69
2018-06-12T05:40:07.727Z,1007.72
2018-06-12T05:41:07.699Z,1007.66
2018-06-12T05:42:07.666Z,1007.69
2018-06-12T05:43:07.642Z,1007.70
2018-06-12T05:44:07.623Z,1007.74
2018-06-12T05:45:07.603Z,1007.75
2018-06-12T05:46:07.573Z,1007.72
2018-06-12T05:47:07.548Z,1007.74
2018-06-12T05:48:07.526Z,1007.76
2018-06-12T05:49:07.499Z,1007.76
2018-06-12T05:50:07.479Z,1007.73
2018-06-12T05:51:07.446Z,1007.72
2018-06-12T05:52:07.429Z,1007.74
2018-06-12T05:53:07.404Z,1007.73
2018-06-12T05:54:07.380Z,1007.77
2018-06-12T05:55:07.356Z,1007.78
2018-06-12T05:56:07.322Z,1007.78
2018-06-12T05:57:07.300Z,1007.77
2018-06-12T05:58:07.279Z,1007.79
2018-06-12T05:59:07.256Z,1007.80
2018-06-12T06:00:07.227Z,1007.79
2018-06-12T06:01:07.200Z,1007.80
2018-06-12T06:02:07.186Z,1007.80
2018-06-12T06:03:07.153Z,1007.83
2018-06-12T06:04:07.125Z,1007.86
2018-06-12T06:05:07.114Z,1007.81
2018-06-12T06:06:07.084Z,1007.81
2018-06-12T06:07:07.055Z,1007.79
2018-06-12T06:08:07.040Z,1007.83
2018-06-12T06:09:07.006Z,1007.83
2018-06-12T06:10:06.997Z,1007.85
2018-06-12T06:11:06.963Z,1007.86
2018-06-12T06:12:06.938Z,1007.91
2018-06-12T06:13:06.908Z,1007.89
2018-06-12T06:14:06.896Z,1007.87
2018-06-12T06:15:06.867Z,1007.92
2018-06-12T06:16:06.844Z,1007.94
2018-06-12T06:17:06.868Z,1007.97
2018-06-12T06:18:06.787Z,1007.98
2018-06-12T06:19:06.768Z,1008.01
2018-06-12T06:20:06.743Z,1007.99
2018-06-12T06:21:06.713Z,1007.99
2018-06-12T06:22:06.702Z,1008.01
2018-06-12T06:23:06.667Z,1008.03
2018-06-12T06:24:06.644Z,1008.04
2018-06-12T06:25:06.624Z,1008.00
2018-06-12T06:26:06.594Z,1008.02
2018-06-12T06:27:06.569Z,1008.00
2018-06-12T06:28:06.548Z,1008.01
2018-06-12T06:29:06.521Z,1008.02
2018-06-12T06:30:06.501Z,1007.96
2018-06-12T06:31:06.475Z,1008.04
2018-06-12T06:32:06.447Z,1008.03
2018-06-12T06:33:06.428Z,1008.02
2018-06-12T06:34:06.408Z,1008.06
2018-06-12T06:35:06.376Z,1008.04
2018-06-12T06:36:06.349Z,1008.04
2018-06-12T06:37:06.327Z,1008.00
2018-06-12T06:38:06.311Z,1007.97
2018-06-12T06:39:06.283Z,1007.98
2018-06-12T06:40:06.253Z,1008.00
2018-06-12T06:41:06.238Z,1007.98
2018-06-12T06:42:06.212Z,1008.00
2018-06-12T06:43:06.219Z,1007.99
2018-06-12T06:44:06.169Z,1008.01
2018-06-12T06:45:06.135Z,1008.00
2018-06-12T06:46:06.108Z,1008.00
2018-06-12T06:47:06.092Z,1007.99
2018-06-12T06:48:06.063Z,1008.01
2018-06-12T06:49:06.041Z,1008.01
2018-06-12T06:50:06.009Z,1007.99
2018-06-12T06:51:06.022Z,1008.01
2018-06-12T06:52:05.970Z,1007.96
2018-06-12T06:53:05.942Z,1007.97
2018-06-12T06:54:05.914Z,1007.95
2018-06-12T06:55:05.890Z,1008.01
2018-06-12T06:56:05.869Z,1007.97
2018-06-12T06:57:05.842Z,1007.96
2018-06-12T06:58:05.818Z,1007.95
2018-06-12T06:59:05.799Z,1007.95
2018-06-12T07:00:05.772Z,1007.92
2018-06-12T07:01:05.747Z,1007.96
2018-06-12T07:02:05.727Z,1007.91
2018-06-12T07:03:05.710Z,1007.93
2018-06-12T07:04:05.692Z,1007.92
2018-06-12T07:05:05.654Z,1007.90
2018-06-12T07:06:05.632Z,1007.95
2018-06-12T07:07:05.607Z,1007.94
2018-06-12T07:08:05.580Z,1007.94
2018-06-12T07:09:05.574Z,1007.90
2018-06-12T07:10:05.527Z,1007.93
2018-06-12T07:11:05.511Z,1007.93
2018-06-12T07:12:05.479Z,1007.93
2018-06-12T07:13:05.460Z,1007.91
2018-06-12T07:14:05.439Z,1007.91
2018-06-12T07:15:05.414Z,1007.94
2018-06-12T07:16:05.385Z,1007.92
2018-06-12T07:17:05.358Z,1007.96
2018-06-12T07:18:05.341Z,1007.92
2018-06-12T07:19:05.311Z,1007.97
2018-06-12T07:20:05.295Z,1007.96
2018-06-12T07:21:05.277Z,1007.97
2018-06-12T07:22:05.239Z,1007.94
2018-06-12T07:23:05.216Z,1007.95
2018-06-12T07:24:05.191Z,1007.95
2018-06-12T07:25:05.167Z,1007.99
2018-06-12T07:26:05.144Z,1008.00
2018-06-12T07:27:05.120Z,1007.99
2018-06-12T07:28:05.099Z,1007.97
2018-06-12T07:29:05.079Z,1007.98
2018-06-12T07:30:05.069Z,1007.96
2018-06-12T07:31:05.031Z,1007.98
2018-06-12T07:32:05.005Z,1007.97
2018-06-12T07:33:04.983Z,1007.95
2018-06-12T07:34:04.958Z,1007.94
2018-06-12T07:35:04.937Z,1007.97
2018-06-12T07:36:04.908Z,1007.95
2018-06-12T07:37:04.890Z,1007.95
2018-06-12T07:38:04.861Z,1007.97
2018-06-12T07:39:04.844Z,1007.99
2018-06-12T07:40:04.809Z,1008.00
2018-06-12T07:41:04.796Z,1007.96
2018-06-12T07:42:04.762Z,1007.91
2018-06-12T07:43:04.745Z,1007.90
2018-06-12T07:44:04.725Z,1007.89
2018-06-12T07:45:04.714Z,1007.92
2018-06-12T07:46:04.671Z,1007.95
2018-06-12T07:47:04.644Z,1007.95
2018-06-12T07:48:04.631Z,1007.93
2018-06-12T07:49:04.596Z,1007.93
2018-06-12T07:50:04.582Z,1007.90
2018-06-12T07:51:04.566Z,1007.91
2018-06-12T07:52:04.531Z,1007.92
2018-06-12T07:53:04.504Z,1007.90
2018-06-12T07:54:04.486Z,1007.94
2018-06-12T07:55:04.506Z,1007.95
2018-06-12T07:56:04.437Z,1007.94
2018-06-12T07:57:04.407Z,1007.93
2018-06-12T07:58:04.390Z,1007.99
2018-06-12T07:59:04.360Z,1007.94
2018-06-12T08:00:04.337Z,1007.96
2018-06-12T08:01:04.340Z,1007.87
2018-06-12T08:02:04.292Z,1007.90
2018-06-12T08:03:04.270Z,1007.89
2018-06-12T08:04:04.237Z,1007.89
2018-06-12T08:05:04.215Z,1007.91
2018-06-12T08:06:04.196Z,1007.90
2018-06-12T08:07:04.240Z,1007.93
2018-06-12T08:08:04.144Z,1007.93
2018-06-12T08:09:04.118Z,1007.90
2018-06-12T08:10:04.105Z,1007.90
2018-06-12T08:11:04.080Z,1007.92
2018-06-12T08:12:04.074Z,1007.95
2018-06-12T08:13:04.044Z,1007.93
2018-06-12T08:14:04.003Z,1007.93
2018-06-12T08:15:03.979Z,1007.96
2018-06-12T08:16:03.953Z,1008.01
2018-06-12T08:17:03.939Z,1007.99
2018-06-12T08:18:03.943Z,1007.99
2018-06-12T08:19:03.908Z,1007.95
2018-06-12T08:20:03.864Z,1007.99
2018-06-12T08:21:03.856Z,1008.02
2018-06-12T08:22:03.810Z,1007.98
2018-06-12T08:23:03.789Z,1007.97
2018-06-12T08:24:03.767Z,1007.97
2018-06-12T08:25:03.745Z,1007.98
2018-06-12T08:26:03.713Z,1008.00
2018-06-12T08:27:03.689Z,1007.95
2018-06-12T08:28:03.674Z,1008.00
2018-06-12T08:29:03.645Z,1007.94
2018-06-12T08:30:03.760Z,1008.03
2018-06-12T08:31:03.617Z,1008.04
2018-06-12T08:32:03.581Z,1008.05
2018-06-12T08:33:03.557Z,1007.98
2018-06-12T08:34:03.526Z,1008.00
2018-06-12T08:35:03.513Z,1008.01
2018-06-12T08:36:03.483Z,1008.00
2018-06-12T08:37:03.457Z,1007.99
2018-06-12T08:38:03.441Z,1008.00
2018-06-12T08:39:03.403Z,1007.96
2018-06-12T08:40:03.407Z,1007.92
2018-06-12T08:41:03.355Z,1007.93
2018-06-12T08:42:03.340Z,1007.91
2018-06-12T08:43:03.321Z,1007.92
2018-06-12T08:44:03.310Z,1007.89
2018-06-12T08:45:03.267Z,1007.93
2018-06-12T08:46:03.244Z,1007.88
2018-06-12T08:47:03.215Z,1007.91
2018-06-12T08:48:03.200Z,1007.90
2018-06-12T08:49:03.169Z,1007.86
2018-06-12T08:50:03.152Z,1007.87
2018-06-12T08:51:03.120Z,1007.88
2018-06-12T08:52:03.105Z,1007.82
2018-06-12T08:53:03.079Z,1007.82
2018-06-12T08:54:03.062Z,1007.84
2018-06-12T08:55:03.040Z,1007.84
2018-06-12T08:56:03.007Z,1007.81
2018-06-12T08:57:02.980Z,1007.80
2018-06-12T08:58:02.962Z,1007.88
2018-06-12T08:59:02.940Z,1007.83
2018-06-12T09:00:02.910Z,1007.83
2018-06-12T09:01:02.885Z,1007.81
2018-06-12T09:02:02.870Z,1007.76
2018-06-12T09:03:02.846Z,1007.85
2018-06-12T09:04:02.825Z,1007.86
2018-06-12T09:05:02.793Z,1007.86
2018-06-12T09:06:02.776Z,1007.84
2018-06-12T09:07:02.754Z,1007.83
2018-06-12T09:08:02.722Z,1007.83
2018-06-12T09:09:02.697Z,1007.83
2018-06-12T09:10:02.679Z,1007.89
2018-06-12T09:11:02.657Z,1007.91
2018-06-12T09:12:02.629Z,1007.86
2018-06-12T09:13:02.603Z,1007.87
2018-06-12T09:14:02.590Z,1007.91
2018-06-12T09:15:02.561Z,1007.83
2018-06-12T09:16:02.533Z,1007.85
2018-06-12T09:17:02.517Z,1007.84
2018-06-12T09:18:02.496Z,1007.85
2018-06-12T09:19:02.463Z,1007.83
2018-06-12T09:20:02.448Z,1007.85
2018-06-12T09:21:02.427Z,1007.90
2018-06-12T09:22:02.398Z,1007.92
2018-06-12T09:23:02.370Z,1007.95
2018-06-12T09:24:02.358Z,1008.00
2018-06-12T09:25:02.375Z,1007.99
2018-06-12T09:26:02.304Z,1007.99
2018-06-12T09:27:02.294Z,1008.00
2018-06-12T09:28:02.262Z,1008.02
2018-06-12T09:29:02.242Z,1007.95
2018-06-12T09:30:02.208Z,1008.03
2018-06-12T09:31:02.186Z,1008.01
2018-06-12T09:32:02.163Z,1008.02
2018-06-12T09:33:02.137Z,1007.96
2018-06-12T09:34:02.122Z,1008.04
2018-06-12T09:35:02.092Z,1007.98
2018-06-12T09:36:02.109Z,1007.99
2018-06-12T09:37:02.046Z,1008.01
2018-06-12T09:38:02.026Z,1008.06
2018-06-12T09:39:01.998Z,1008.04
2018-06-12T09:40:01.978Z,1008.07
2018-06-12T09:41:01.977Z,1008.04
2018-06-12T09:42:01.942Z,1008.06
2018-06-12T09:43:01.901Z,1008.04
2018-06-12T09:44:01.879Z,1008.10
2018-06-12T09:45:01.858Z,1008.03
2018-06-12T09:46:01.841Z,1008.06
2018-06-12T09:47:01.816Z,1008.02
2018-06-12T09:48:01.798Z,1008.06
2018-06-12T09:49:01.836Z,1008.05
2018-06-12T09:50:01.744Z,1008.02
2018-06-12T09:51:01.728Z,1008.04
2018-06-12T09:52:01.696Z,1008.05
2018-06-12T09:53:01.677Z,1008.11
2018-06-12T09:54:01.652Z,1008.13
2018-06-12T09:55:01.629Z,1008.06
2018-06-12T09:56:01.598Z,1008.09
2018-06-12T09:57:01.578Z,1008.03
2018-06-12T09:58:01.569Z,1008.04
2018-06-12T09:59:01.529Z,1008.05
2018-06-12T10:00:01.513Z,1008.02
2018-06-12T10:01:01.498Z,1008.10
2018-06-12T10:02:01.463Z,1008.06
2018-06-12T10:03:01.439Z,1008.03
2018-06-12T10:04:01.412Z,1008.07
2018-06-12T10:05:01.401Z,1008.05
2018-06-12T10:06:01.364Z,1008.11
2018-06-12T10:07:01.340Z,1008.08
2018-06-12T10:08:01.350Z,1008.10
2018-06-12T10:09:01.327Z,1008.08
2018-06-12T10:10:01.279Z,1008.11
2018-06-12T10:11:01.248Z,1008.08
2018-06-12T10:12:01.232Z,1008.07
2018-06-12T10:13:01.201Z,1008.09
2018-06-12T10:14:01.187Z,1008.11
2018-06-12T10:15:01.178Z,1008.10
2018-06-12T10:16:01.132Z,1008.11
2018-06-12T10:17:01.118Z,1008.12
2018-06-12T10:18:01.090Z,1008.13
2018-06-12T10:19:01.067Z,1008.10
2018-06-12T10:20:01.042Z,1008.10
2018-06-12T10:21:01.034Z,1008.13
2018-06-12T10:22:01.008Z,1008.17
2018-06-12T10:23:00.990Z,1008.16
2018-06-12T10:24:00.947Z,1008.15
2018-06-12T10:25:00.976Z,1008.21
2018-06-12T10:26:00.907Z,1008.18
2018-06-12T10:27:00.881Z,1008.18
2018-06-12T10:28:00.862Z,1008.22
2018-06-12T10:29:00.851Z,1008.27
2018-06-12T10:30:00.810Z,1008.21
2018-06-12T10:31:00.788Z,1008.20
2018-06-12T10:32:00.784Z,1008.19
2018-06-12T10:33:00.746Z,1008.18
2018-06-12T10:34:00.720Z,1008.20
2018-06-12T10:35:00.706Z,1008.18
2018-06-12T10:36:00.681Z,1008.19
2018-06-12T10:37:00.653Z,1008.18
2018-06-12T10:38:00.628Z,1008.19
2018-06-12T10:39:00.607Z,1008.24
2018-06-12T10:40:00.598Z,1008.20
2018-06-12T10:41:00.557Z,1008.19
2018-06-12T10:42:00.545Z,1008.20
2018-06-12T10:43:00.535Z,1008.24
2018-06-12T10:44:00.493Z,1008.18
2018-06-12T10:45:00.470Z,1008.21
2018-06-12T10:46:00.455Z,1008.20
2018-06-12T10:47:00.428Z,1008.19
2018-06-12T10:48:00.397Z,1008.17
2018-06-12T10:49:00.381Z,1008.17
2018-06-12T10:50:00.417Z,1008.20
2018-06-12T10:51:00.327Z,1008.20
2018-06-12T10:52:00.308Z,1008.21
2018-06-12T10:53:00.282Z,1008.20
2018-06-12T10:54:00.270Z,1008.21
2018-06-12T10:55:00.241Z,1008.22
2018-06-12T10:56:00.220Z,1008.17
2018-06-12T10:57:00.194Z,1008.16
2018-06-12T10:58:00.169Z,1008.14
2018-06-12T10:59:00.158Z,1008.18
2018-06-12T11:00:00.127Z,1008.15
2018-06-12T11:01:00.107Z,1008.19
2018-06-12T11:02:00.085Z,1008.16
2018-06-12T11:03:00.053Z,1008.10
2018-06-12T11:04:00.041Z,1008.09
2018-06-12T11:05:00.035Z,1008.07
2018-06-12T11:05:59.995Z,1008.08
2018-06-12T11:06:59.974Z,1008.04
2018-06-12T11:07:59.945Z,1008.09
2018-06-12T11:08:59.924Z,1008.07
2018-06-12T11:09:59.905Z,1008.07
2018-06-12T11:10:59.876Z,1008.08
2018-06-12T11:11:59.852Z,1008.06
2018-06-12T11:12:59.832Z,1008.08
2018-06-12T11:13:59.814Z,1008.11
2018-06-12T11:14:59.780Z,1008.09
2018-06-12T11:15:59.766Z,1008.08
2018-06-12T11:16:59.736Z,1008.09
2018-06-12T11:17:59.722Z,1008.08
2018-06-12T11:18:59.698Z,1008.03
2018-06-12T11:19:59.669Z,1008.04
2018-06-12T11:20:59.654Z,1008.07
2018-06-12T11:21:59.624Z,1008.07
2018-06-12T11:22:59.608Z,1008.00
2018-06-12T11:23:59.582Z,1008.04
2018-06-12T11:24:59.555Z,1008.06
2018-06-12T11:25:59.537Z,1008.03
2018-06-12T11:26:59.521Z,1008.00
2018-06-12T11:27:59.495Z,1008.00
2018-06-12T11:28:59.476Z,1008.00
2018-06-12T11:29:59.450Z,1008.00
2018-06-12T11:30:59.423Z,1008.01
2018-06-12T11:31:59.468Z,1007.96
2018-06-12T11:32:59.391Z,1007.96
2018-06-12T11:33:59.358Z,1007.96
2018-06-12T11:34:59.332Z,1007.96
2018-06-12T11:35:59.319Z,1007.96
2018-06-12T11:36:59.293Z,1008.02
2018-06-12T11:37:59.269Z,1007.99
2018-06-12T11:38:59.249Z,1008.01
2018-06-12T11:39:59.221Z,1007.99
2018-06-12T11:40:59.207Z,1007.96
2018-06-12T11:41:59.234Z,1007.98
2018-06-12T11:42:59.157Z,1007.96
2018-06-12T11:43:59.137Z,1007.93
2018-06-12T11:44:59.114Z,1007.93
2018-06-12T11:45:59.091Z,1007.92
2018-06-12T11:46:59.081Z,1007.93
2018-06-12T11:47:59.052Z,1007.93
2018-06-12T11:48:59.015Z,1007.89
2018-06-12T11:49:59.003Z,1007.88
2018-06-12T11:50:58.994Z,1007.90
2018-06-12T11:51:58.950Z,1007.91
2018-06-12T11:52:58.928Z,1007.95
2018-06-12T11:53:58.977Z,1007.89
2018-06-12T11:54:58.895Z,1007.89
2018-06-12T11:55:58.865Z,1007.91
2018-06-12T11:56:58.834Z,1007.90
2018-06-12T11:57:58.822Z,1007.88
2018-06-12T11:58:58.791Z,1007.91
2018-06-12T11:59:58.771Z,1007.93
2018-06-12T12:00:58.757Z,1007.96
2018-06-12T12:01:58.721Z,1007.92
2018-06-12T12:02:58.733Z,1007.96
2018-06-12T12:03:58.681Z,1007.94
2018-06-12T12:04:58.684Z,1007.92
2018-06-12T12:05:58.631Z,1007.88
2018-06-12T12:06:58.620Z,1007.85
2018-06-12T12:07:58.593Z,1007.84
2018-06-12T12:08:58.569Z,1007.89